Aviation Digital Data Service (ADDS)

Output produced by METARs form (1705 UTC 19 January 2017)
found at http://aviationweather.gov/adds/metars/
 
KLAN 191137Z 1912/2012 24006KT P6SM OVC010 
     FM191300 22006KT 3SM BR SCT004 OVC009 
     FM191600 20005KT P6SM OVC009 
     FM192000 18006KT P6SM OVC100 
     FM200100 12004KT P6SM OVC250 
     FM200800 09005KT 4SM BR OVC015 
     FM201000 09005KT 4SM -RA BR OVC007